createdAt,value
2022-08-19T00:02:06.651Z,101351.16
2022-08-19T00:04:38.722Z,101367.13
2022-08-19T00:07:10.821Z,101370.84
2022-08-19T00:09:42.848Z,101377.88
2022-08-19T00:12:16.113Z,101373.44
2022-08-19T00:14:48.136Z,101374.13
2022-08-19T00:17:20.148Z,101376.63
2022-08-19T00:19:52.272Z,101365.22
2022-08-19T00:22:24.315Z,101364.47
2022-08-19T00:24:56.271Z,101370.59
2022-08-19T00:27:29.405Z,101361.72
2022-08-19T00:30:03.818Z,101358.03
2022-08-19T00:32:35.791Z,101365.28
2022-08-19T00:35:08.821Z,101363.50
2022-08-19T00:37:44.263Z,101366.00
2022-08-19T00:40:17.511Z,101361.50
2022-08-19T00:42:49.658Z,101363.97
2022-08-19T00:45:25.253Z,101353.47
2022-08-19T00:47:57.378Z,101360.63
2022-08-19T00:50:29.382Z,101360.53
2022-08-19T00:53:05.292Z,101360.53
2022-08-19T00:55:38.872Z,101366.53
2022-08-19T00:58:18.624Z,101361.09
2022-08-19T01:00:50.597Z,101360.03
2022-08-19T01:03:23.883Z,101361.66
2022-08-19T01:05:56.880Z,101360.53
2022-08-19T01:08:29.182Z,101356.16
2022-08-19T01:11:01.924Z,101359.84
2022-08-19T01:13:48.951Z,101354.91
2022-08-19T01:16:25.330Z,101356.19
2022-08-19T01:19:00.381Z,101357.06
2022-08-19T01:21:45.056Z,101341.06
2022-08-19T01:24:17.081Z,101337.66
2022-08-19T01:26:49.409Z,101327.84
2022-08-19T01:29:21.465Z,101329.63
2022-08-19T01:31:56.120Z,101321.53
2022-08-19T01:34:28.187Z,101317.97
2022-08-19T01:37:00.131Z,101319.63
2022-08-19T01:39:32.112Z,101317.72
2022-08-19T01:42:05.373Z,101314.94
2022-08-19T01:44:38.766Z,101309.50
2022-08-19T01:47:10.868Z,101308.75
2022-08-19T01:49:42.896Z,101298.13
2022-08-19T01:52:14.861Z,101299.13
2022-08-19T01:54:46.831Z,101305.38
2022-08-19T01:57:18.767Z,101307.09
2022-08-19T01:59:51.389Z,101302.03
2022-08-19T02:02:23.465Z,101310.00
2022-08-19T02:04:55.876Z,101303.19
2022-08-19T02:07:30.777Z,101304.06
2022-08-19T02:10:10.520Z,101302.03
2022-08-19T02:12:45.276Z,101299.50
2022-08-19T02:15:20.478Z,101294.00
2022-08-19T02:17:52.847Z,101287.19
2022-08-19T02:20:25.083Z,101293.38
2022-08-19T02:22:57.112Z,101280.31
2022-08-19T02:25:29.414Z,101273.50
2022-08-19T02:28:01.442Z,101267.41
2022-08-19T02:30:33.803Z,101269.25
2022-08-19T02:33:06.379Z,101272.03
2022-08-19T02:35:38.363Z,101266.84
2022-08-19T02:38:28.711Z,101264.06
2022-08-19T02:41:03.281Z,101267.75
2022-08-19T02:43:39.639Z,101261.53
2022-08-19T02:46:29.820Z,101266.66
2022-08-19T02:49:06.383Z,101269.56
2022-08-19T02:51:43.538Z,101266.97
2022-08-19T02:54:16.567Z,101274.34
2022-08-19T02:56:48.546Z,101263.97
2022-08-19T02:59:21.171Z,101265.81
2022-08-19T03:01:55.152Z,101252.44
2022-08-19T03:04:27.372Z,101254.97
2022-08-19T03:07:07.136Z,101262.38
2022-08-19T03:09:43.878Z,101267.63
2022-08-19T03:12:15.839Z,101266.63
2022-08-19T03:14:47.837Z,101270.03
2022-08-19T03:17:20.381Z,101273.66
2022-08-19T03:19:52.321Z,101287.06
2022-08-19T03:22:24.344Z,101291.50
2022-08-19T03:24:56.306Z,101305.78
2022-08-19T03:27:34.177Z,101304.03
2022-08-19T03:30:07.970Z,101296.81
2022-08-19T03:32:45.477Z,101299.28
2022-08-19T03:35:17.927Z,101300.94
2022-08-19T03:37:49.985Z,101299.84
2022-08-19T03:40:21.975Z,101295.47
2022-08-19T03:42:53.953Z,101287.56
2022-08-19T03:45:28.559Z,101292.88
2022-08-19T03:48:01.607Z,101294.72
2022-08-19T03:50:33.545Z,101297.56
2022-08-19T03:53:05.566Z,101299.28
2022-08-19T03:55:42.780Z,101302.00
2022-08-19T03:58:14.748Z,101311.69
2022-08-19T04:00:46.736Z,101312.66
2022-08-19T04:03:19.807Z,101318.16
2022-08-19T04:05:51.994Z,101314.66
2022-08-19T04:08:24.121Z,101313.72
2022-08-19T04:10:56.136Z,101316.28
2022-08-19T04:13:28.653Z,101322.47
2022-08-19T04:16:00.657Z,101324.22
2022-08-19T04:18:37.556Z,101320.63
2022-08-19T04:21:21.032Z,101329.53
2022-08-19T04:23:54.301Z,101313.78
2022-08-19T04:26:33.520Z,101316.38
2022-08-19T04:29:13.003Z,101316.66
2022-08-19T04:31:46.468Z,101316.84
2022-08-19T04:34:23.318Z,101316.09
2022-08-19T04:36:57.499Z,101315.28
2022-08-19T04:39:50.270Z,101320.66
2022-08-19T04:42:40.276Z,101323.59
2022-08-19T04:45:15.643Z,101318.47
2022-08-19T04:47:58.651Z,101313.22
2022-08-19T04:50:43.997Z,101320.19
2022-08-19T04:53:16.297Z,101321.31
2022-08-19T04:55:48.247Z,101318.91
2022-08-19T04:58:20.236Z,101318.19
2022-08-19T05:00:52.904Z,101329.94
2022-08-19T05:03:28.771Z,101324.75
2022-08-19T05:06:08.504Z,101323.38
2022-08-19T05:08:44.035Z,101323.44
2022-08-19T05:11:27.347Z,101339.50
2022-08-19T05:13:59.315Z,101343.06
2022-08-19T05:16:31.277Z,101344.84
2022-08-19T05:19:22.094Z,101343.19
2022-08-19T05:22:13.248Z,101337.91
2022-08-19T05:25:09.207Z,101341.31
2022-08-19T05:27:38.050Z,101329.06
2022-08-19T05:30:12.175Z,101331.72
2022-08-19T05:32:44.585Z,101334.38
2022-08-19T05:35:16.548Z,101346.91
2022-08-19T05:37:48.500Z,101354.88
2022-08-19T05:40:25.018Z,101351.25
2022-08-19T05:42:58.794Z,101350.13
2022-08-19T05:45:30.841Z,101343.75
2022-08-19T05:48:02.953Z,101333.94
2022-08-19T05:50:37.568Z,101323.38
2022-08-19T05:53:10.046Z,101322.66
2022-08-19T05:55:42.017Z,101319.03
2022-08-19T05:58:14.290Z,101315.53
2022-08-19T06:00:46.535Z,101308.22
2022-08-19T06:03:18.519Z,101307.31
2022-08-19T06:05:52.117Z,101316.38
2022-08-19T06:08:34.651Z,101318.06
2022-08-19T06:11:39.703Z,101324.84
2022-08-19T06:14:19.608Z,101338.97
2022-08-19T06:17:06.761Z,101322.69
2022-08-19T06:19:40.498Z,101334.00
2022-08-19T06:22:14.143Z,101333.66
2022-08-19T06:24:46.151Z,101336.31
2022-08-19T06:27:18.099Z,101338.22
2022-08-19T06:29:50.596Z,101337.13
2022-08-19T06:32:22.634Z,101335.47
2022-08-19T06:34:54.598Z,101345.16
2022-08-19T06:37:26.596Z,101356.19
2022-08-19T06:39:58.581Z,101354.56
2022-08-19T06:42:31.500Z,101353.53
2022-08-19T06:45:09.249Z,101349.81
2022-08-19T06:47:48.067Z,101350.88
2022-08-19T06:50:20.502Z,101352.41
2022-08-19T06:52:53.132Z,101350.34
2022-08-19T06:55:25.441Z,101354.50
2022-08-19T06:57:57.896Z,101356.88
2022-08-19T07:03:22.226Z,101359.53
2022-08-19T07:05:54.202Z,101361.94
2022-08-19T07:08:27.599Z,101362.81
2022-08-19T07:11:01.737Z,101366.28
2022-08-19T07:13:44.496Z,101370.88
2022-08-19T07:16:21.695Z,101374.41
2022-08-19T07:19:11.527Z,101371.75
2022-08-19T07:21:52.015Z,101373.03
2022-08-19T07:24:27.168Z,101377.00
2022-08-19T07:27:13.054Z,101371.03
2022-08-19T07:29:47.614Z,101378.56
2022-08-19T07:32:28.501Z,101381.91
2022-08-19T07:35:01.778Z,101385.69
2022-08-19T07:37:33.910Z,101386.97
2022-08-19T07:40:08.341Z,101393.28
2022-08-19T07:42:40.425Z,101403.97
2022-08-19T07:45:12.625Z,101401.53
2022-08-19T07:47:49.020Z,101403.03
2022-08-19T07:50:22.947Z,101407.16
2022-08-19T07:52:54.929Z,101413.19
2022-08-19T07:55:42.086Z,101421.66
2022-08-19T07:58:19.393Z,101422.53
2022-08-19T08:00:52.468Z,101416.09
2022-08-19T08:03:44.705Z,101411.25
2022-08-19T08:06:36.084Z,101417.78
2022-08-19T08:09:12.628Z,101411.56
2022-08-19T08:11:53.851Z,101413.78
2022-08-19T08:14:37.930Z,101403.28
2022-08-19T08:17:17.452Z,101414.59
2022-08-19T08:20:10.273Z,101424.88
2022-08-19T08:23:05.546Z,101422.41
2022-08-19T08:25:38.347Z,101423.38
2022-08-19T08:28:17.372Z,101427.66
2022-08-19T08:30:50.937Z,101432.50
2022-08-19T08:33:33.816Z,101439.06
2022-08-19T08:36:07.347Z,101426.84
2022-08-19T08:38:40.905Z,101429.16
2022-08-19T08:41:31.909Z,101423.28
2022-08-19T08:44:08.525Z,101438.84
2022-08-19T08:47:00.312Z,101429.38
2022-08-19T08:49:51.817Z,101447.81
2022-08-19T08:52:33.351Z,101441.94
2022-08-19T08:55:11.631Z,101439.22
2022-08-19T08:57:49.884Z,101436.13
2022-08-19T09:00:33.122Z,101436.63
2022-08-19T09:03:12.772Z,101437.03
2022-08-19T09:05:55.517Z,101433.94
2022-08-19T09:08:37.004Z,101433.72
2022-08-19T09:11:16.929Z,101443.84
2022-08-19T09:14:40.821Z,101441.75
2022-08-19T09:17:11.252Z,101430.22
2022-08-19T09:20:17.523Z,101422.41
2022-08-19T09:22:52.794Z,101423.66
2022-08-19T09:25:26.964Z,101417.88
2022-08-19T09:28:05.505Z,101417.97
2022-08-19T09:30:42.538Z,101424.19
2022-08-19T09:33:14.727Z,101426.22
2022-08-19T09:35:49.749Z,101418.53
2022-08-19T09:38:25.365Z,101414.94
2022-08-19T09:40:57.332Z,101417.53
2022-08-19T09:43:33.253Z,101414.53
2022-08-19T09:46:10.063Z,101423.59
2022-08-19T09:48:43.343Z,101416.06
2022-08-19T09:51:21.413Z,101415.06
2022-08-19T09:53:57.838Z,101426.25
2022-08-19T09:56:31.406Z,101426.38
2022-08-19T09:59:05.217Z,101412.41
2022-08-19T10:01:37.385Z,101420.22
2022-08-19T10:04:20.118Z,101420.47
2022-08-19T10:06:57.413Z,101418.22
2022-08-19T10:09:34.482Z,101409.09
2022-08-19T10:12:11.170Z,101402.44
2022-08-19T10:14:43.594Z,101396.59
2022-08-19T10:17:17.993Z,101393.75
2022-08-19T10:19:55.548Z,101392.03
2022-08-19T10:22:28.125Z,101386.97
2022-08-19T10:25:00.107Z,101396.00
2022-08-19T10:27:32.636Z,101395.19
2022-08-19T10:30:10.088Z,101389.19
2022-08-19T10:32:46.465Z,101399.41
2022-08-19T10:35:21.125Z,101387.25
2022-08-19T10:37:57.357Z,101377.13
2022-08-19T10:40:30.045Z,101382.13
2022-08-19T10:43:02.021Z,101372.69
2022-08-19T10:45:34.007Z,101369.31
2022-08-19T10:48:06.040Z,101373.97
2022-08-19T10:50:56.957Z,101362.28
2022-08-19T10:53:28.909Z,101367.97
2022-08-19T10:56:19.311Z,101365.19
2022-08-19T10:58:51.416Z,101373.75
2022-08-19T11:01:23.468Z,101378.59
2022-08-19T11:03:55.448Z,101373.06
2022-08-19T11:06:27.718Z,101366.13
2022-08-19T11:09:01.088Z,101364.94
2022-08-19T11:11:33.525Z,101368.34
2022-08-19T11:14:14.811Z,101372.97
2022-08-19T11:16:48.326Z,101368.56
2022-08-19T11:19:20.366Z,101363.09
2022-08-19T11:21:54.840Z,101367.53
2022-08-19T11:24:31.533Z,101357.38
2022-08-19T11:27:10.158Z,101364.84
2022-08-19T11:29:42.214Z,101357.25
2022-08-19T11:32:14.311Z,101361.81
2022-08-19T11:34:46.255Z,101355.72
2022-08-19T11:37:18.301Z,101343.00
2022-08-19T11:39:53.513Z,101349.47
2022-08-19T11:42:44.265Z,101346.69
2022-08-19T11:45:16.384Z,101341.53
2022-08-19T11:47:48.777Z,101338.63
2022-08-19T11:50:21.166Z,101334.50
2022-08-19T11:52:59.146Z,101335.59
2022-08-19T11:55:31.131Z,101333.41
2022-08-19T11:58:06.973Z,101328.34
2022-08-19T12:00:51.094Z,101323.81
2022-08-19T12:03:23.604Z,101325.75
2022-08-19T12:05:55.877Z,101331.19
2022-08-19T12:08:27.917Z,101317.69
2022-08-19T12:11:02.067Z,101322.91
2022-08-19T12:13:34.187Z,101318.09
2022-08-19T12:16:17.836Z,101316.06
2022-08-19T12:18:51.944Z,101318.69
2022-08-19T12:21:29.633Z,101311.44
2022-08-19T12:24:04.775Z,101307.34
2022-08-19T12:26:52.841Z,101313.34
2022-08-19T12:29:30.512Z,101307.94
2022-08-19T12:32:03.926Z,101316.28
2022-08-19T12:34:37.831Z,101311.50
2022-08-19T12:37:10.054Z,101315.47
2022-08-19T12:39:43.597Z,101316.38
2022-08-19T12:42:16.057Z,101319.78
2022-08-19T12:44:48.672Z,101310.72
2022-08-19T12:47:21.498Z,101305.97
2022-08-19T12:49:55.771Z,101304.75
2022-08-19T12:52:29.189Z,101294.34
2022-08-19T12:55:01.301Z,101296.13
2022-08-19T12:57:35.671Z,101295.94
2022-08-19T13:00:17.808Z,101287.47
2022-08-19T13:02:53.044Z,101283.56
2022-08-19T13:05:29.635Z,101285.31
2022-08-19T13:08:02.676Z,101290.19
2022-08-19T13:10:37.053Z,101294.59
2022-08-19T13:13:13.517Z,101300.50
2022-08-19T13:15:46.367Z,101293.06
2022-08-19T13:18:18.304Z,101286.59
2022-08-19T13:20:52.648Z,101294.91
2022-08-19T13:23:25.147Z,101299.53
2022-08-19T13:26:02.451Z,101300.19
2022-08-19T13:28:54.275Z,101293.53
2022-08-19T13:31:50.200Z,101284.59
2022-08-19T13:34:37.978Z,101287.28
2022-08-19T13:37:10.006Z,101294.28
2022-08-19T13:39:42.023Z,101285.16
2022-08-19T13:42:14.953Z,101284.72
2022-08-19T13:44:48.824Z,101276.47
2022-08-19T13:47:20.926Z,101269.84
2022-08-19T13:49:53.209Z,101273.41
2022-08-19T13:52:26.104Z,101267.44
2022-08-19T13:54:58.180Z,101269.84
2022-08-19T13:57:30.148Z,101270.72
2022-08-19T14:00:03.784Z,101261.31
2022-08-19T14:02:35.977Z,101267.19
2022-08-19T14:05:11.439Z,101268.00
2022-08-19T14:07:43.773Z,101264.44
2022-08-19T14:10:17.717Z,101265.13
2022-08-19T14:12:50.310Z,101259.13
2022-08-19T14:15:24.228Z,101264.84
2022-08-19T14:17:57.131Z,101252.16
2022-08-19T14:20:29.392Z,101255.88
2022-08-19T14:23:01.934Z,101257.31
2022-08-19T14:25:35.177Z,101251.97
2022-08-19T14:28:08.719Z,101251.25
2022-08-19T14:30:40.802Z,101252.28
2022-08-19T14:33:12.865Z,101251.81
2022-08-19T14:35:46.025Z,101250.66
2022-08-19T14:38:22.018Z,101258.78
2022-08-19T14:41:14.925Z,101268.31
2022-08-19T14:43:52.450Z,101264.72
2022-08-19T14:46:29.636Z,101269.25
2022-08-19T14:49:09.521Z,101262.50
2022-08-19T14:51:41.768Z,101269.28
2022-08-19T14:54:14.459Z,101266.09
2022-08-19T14:56:46.570Z,101271.97
2022-08-19T14:59:19.365Z,101267.94
2022-08-19T15:01:51.540Z,101271.59
2022-08-19T15:04:23.518Z,101274.41
2022-08-19T15:06:55.680Z,101275.78
2022-08-19T15:09:27.656Z,101279.03
2022-08-19T15:12:01.435Z,101271.88
2022-08-19T15:14:35.310Z,101273.59
2022-08-19T15:17:07.348Z,101272.84
2022-08-19T15:19:39.894Z,101279.31
2022-08-19T15:22:12.062Z,101286.41
2022-08-19T15:24:48.022Z,101280.88
2022-08-19T15:27:20.502Z,101281.09
2022-08-19T15:29:56.485Z,101287.84
2022-08-19T15:32:33.403Z,101285.91
2022-08-19T15:35:08.111Z,101290.31
2022-08-19T15:37:40.159Z,101288.22
2022-08-19T15:40:12.706Z,101287.44
2022-08-19T15:42:44.971Z,101284.75
2022-08-19T15:45:18.752Z,101284.44
2022-08-19T15:47:50.834Z,101282.47
2022-08-19T15:50:23.538Z,101278.84
2022-08-19T15:53:03.930Z,101281.84
2022-08-19T15:55:44.329Z,101282.53
2022-08-19T15:58:35.352Z,101276.00
2022-08-19T16:01:27.568Z,101273.63
2022-08-19T16:04:20.150Z,101275.91
2022-08-19T16:06:57.222Z,101277.09
2022-08-19T16:09:31.847Z,101275.38
2022-08-19T16:12:06.386Z,101276.69
2022-08-19T16:14:38.508Z,101268.00
2022-08-19T16:17:12.680Z,101275.94
2022-08-19T16:19:44.715Z,101276.31
2022-08-19T16:22:17.297Z,101270.50
2022-08-19T16:24:49.286Z,101283.38
2022-08-19T16:27:22.582Z,101272.00
2022-08-19T16:29:54.854Z,101274.47
2022-08-19T16:32:27.159Z,101278.22
2022-08-19T16:35:03.265Z,101286.72
2022-08-19T16:37:38.176Z,101279.28
2022-08-19T16:40:11.212Z,101285.72
2022-08-19T16:42:43.232Z,101284.09
2022-08-19T16:45:15.298Z,101282.06
2022-08-19T16:47:47.359Z,101290.22
2022-08-19T16:50:33.559Z,101287.00
2022-08-19T16:53:21.716Z,101286.03
2022-08-19T16:55:57.244Z,101290.00
2022-08-19T16:58:34.165Z,101289.25
2022-08-19T17:01:10.446Z,101284.84
2022-08-19T17:03:42.781Z,101291.28
2022-08-19T17:06:26.505Z,101290.66
2022-08-19T17:09:01.248Z,101291.91
2022-08-19T17:11:33.977Z,101295.53
2022-08-19T17:14:06.667Z,101303.69
2022-08-19T17:16:39.477Z,101292.41
2022-08-19T17:19:11.672Z,101295.22
2022-08-19T17:21:43.755Z,101301.09
2022-08-19T17:24:15.763Z,101305.38
2022-08-19T17:26:47.731Z,101305.19
2022-08-19T17:29:19.805Z,101302.81
2022-08-19T17:31:51.810Z,101304.94
2022-08-19T17:34:23.908Z,101309.34
2022-08-19T17:36:58.466Z,101311.88
2022-08-19T17:39:30.491Z,101309.56
2022-08-19T17:42:09.955Z,101304.19
2022-08-19T17:44:42.249Z,101292.25
2022-08-19T17:47:16.766Z,101299.84
2022-08-19T17:49:48.929Z,101299.38
2022-08-19T17:52:22.103Z,101298.13
2022-08-19T17:54:54.194Z,101298.72
2022-08-19T17:57:26.301Z,101296.81
2022-08-19T17:59:58.716Z,101294.53
2022-08-19T18:02:31.278Z,101292.91
2022-08-19T18:05:05.218Z,101289.34
2022-08-19T18:07:37.271Z,101289.72
2022-08-19T18:10:10.247Z,101293.44
2022-08-19T18:12:44.345Z,101286.66
2022-08-19T18:15:17.558Z,101283.41
2022-08-19T18:17:49.917Z,101280.16
2022-08-19T18:20:22.263Z,101281.19
2022-08-19T18:22:57.516Z,101283.13
2022-08-19T18:25:50.291Z,101279.78
2022-08-19T18:28:23.894Z,101276.38
2022-08-19T18:30:56.392Z,101278.59
2022-08-19T18:33:28.587Z,101279.72
2022-08-19T18:36:01.922Z,101283.44
2022-08-19T18:38:52.434Z,101279.16
2022-08-19T18:41:43.228Z,101277.41
2022-08-19T18:44:34.158Z,101279.53
2022-08-19T18:47:24.980Z,101282.56
2022-08-19T18:49:57.001Z,101283.94
2022-08-19T18:52:29.171Z,101283.47
2022-08-19T18:55:02.859Z,101286.41
2022-08-19T18:57:35.462Z,101288.50
2022-08-19T19:00:09.183Z,101284.38
2022-08-19T19:02:41.372Z,101281.06
2022-08-19T19:05:15.288Z,101282.22
2022-08-19T19:07:47.905Z,101286.97
2022-08-19T19:10:22.822Z,101288.97
2022-08-19T19:12:55.101Z,101290.19
2022-08-19T19:15:29.554Z,101287.00
2022-08-19T19:18:01.584Z,101290.88
2022-08-19T19:20:36.458Z,101283.13
2022-08-19T19:23:09.257Z,101283.44
2022-08-19T19:25:50.564Z,101292.50
2022-08-19T19:28:28.407Z,101288.56
2022-08-19T19:31:00.594Z,101293.13
2022-08-19T19:33:33.258Z,101303.13
2022-08-19T19:36:05.770Z,101293.56
2022-08-19T19:38:37.818Z,101302.66
2022-08-19T19:41:10.137Z,101302.91
2022-08-19T19:43:42.874Z,101310.25
2022-08-19T19:46:15.725Z,101304.38
2022-08-19T19:48:48.287Z,101316.09
2022-08-19T19:51:20.606Z,101316.44
2022-08-19T19:53:54.180Z,101323.56
2022-08-19T19:56:26.547Z,101329.88
2022-08-19T19:58:58.814Z,101338.91
2022-08-19T20:01:31.137Z,101340.88
2022-08-19T20:04:03.615Z,101335.63
2022-08-19T20:06:35.647Z,101333.97
2022-08-19T20:09:08.209Z,101331.63
2022-08-19T20:11:44.777Z,101328.25
2022-08-19T20:14:31.802Z,101325.72
2022-08-19T20:17:05.432Z,101322.38
2022-08-19T20:19:37.762Z,101324.25
2022-08-19T20:22:10.554Z,101329.75
2022-08-19T20:24:44.898Z,101326.47
2022-08-19T20:27:19.071Z,101337.28
2022-08-19T20:29:54.991Z,101337.50
2022-08-19T20:32:26.982Z,101340.34
2022-08-19T20:34:59.933Z,101348.28
2022-08-19T20:37:32.504Z,101350.16
2022-08-19T20:40:06.974Z,101347.50
2022-08-19T20:42:42.534Z,101354.47
2022-08-19T20:45:32.159Z,101355.41
2022-08-19T20:48:07.656Z,101353.59
2022-08-19T20:50:40.497Z,101362.56
2022-08-19T20:53:19.894Z,101358.09
2022-08-19T20:55:55.461Z,101358.09
2022-08-19T20:58:31.938Z,101360.84
2022-08-19T21:01:06.566Z,101367.97
2022-08-19T21:03:43.391Z,101370.66
2022-08-19T21:06:15.564Z,101364.59
2022-08-19T21:08:47.776Z,101372.53
2022-08-19T21:11:21.428Z,101376.94
2022-08-19T21:13:53.480Z,101375.19
2022-08-19T21:16:25.570Z,101377.78
2022-08-19T21:18:57.513Z,101381.78
2022-08-19T21:21:29.529Z,101382.97
2022-08-19T21:24:01.818Z,101380.53
2022-08-19T21:26:33.818Z,101381.78
2022-08-19T21:29:06.162Z,101384.38
2022-08-19T21:31:38.199Z,101380.69
2022-08-19T21:34:13.014Z,101391.28
2022-08-19T21:36:45.053Z,101392.31
2022-08-19T21:39:16.989Z,101401.09
2022-08-19T21:41:49.084Z,101398.44
2022-08-19T21:44:21.309Z,101393.09
2022-08-19T21:46:53.354Z,101393.16
2022-08-19T21:49:25.465Z,101396.78
2022-08-19T21:51:58.597Z,101396.84
2022-08-19T21:54:38.129Z,101397.72
2022-08-19T21:57:11.107Z,101400.47
2022-08-19T21:59:44.146Z,101394.34
2022-08-19T22:02:21.582Z,101389.09
2022-08-19T22:04:54.039Z,101394.56
2022-08-19T22:07:26.243Z,101399.03
2022-08-19T22:09:58.235Z,101399.03
2022-08-19T22:12:35.152Z,101391.97
2022-08-19T22:15:09.184Z,101392.78
2022-08-19T22:17:42.287Z,101395.28
2022-08-19T22:20:19.985Z,101401.31
2022-08-19T22:22:57.158Z,101403.06
2022-08-19T22:25:45.698Z,101400.22
2022-08-19T22:28:18.745Z,101401.03
2022-08-19T22:30:51.320Z,101395.44
2022-08-19T22:33:24.226Z,101401.81
2022-08-19T22:35:57.408Z,101406.19
2022-08-19T22:38:29.436Z,101402.91
2022-08-19T22:41:02.099Z,101405.88
2022-08-19T22:43:34.366Z,101409.63
2022-08-19T22:46:17.122Z,101414.50
2022-08-19T22:49:01.306Z,101411.59
2022-08-19T22:51:52.742Z,101420.88
2022-08-19T22:54:25.014Z,101421.31
2022-08-19T22:56:57.050Z,101421.63
2022-08-19T22:59:29.680Z,101422.06
2022-08-19T23:02:01.676Z,101422.84
2022-08-19T23:04:34.225Z,101422.13
2022-08-19T23:07:06.319Z,101426.00
2022-08-19T23:09:41.530Z,101421.63
2022-08-19T23:12:17.124Z,101415.50
2022-08-19T23:14:49.119Z,101399.66
2022-08-19T23:17:21.446Z,101411.09
2022-08-19T23:19:53.484Z,101410.25
2022-08-19T23:22:25.899Z,101409.31
2022-08-19T23:25:14.882Z,101416.50
2022-08-19T23:28:07.900Z,101402.47
2022-08-19T23:30:45.497Z,101403.41
2022-08-19T23:33:26.533Z,101401.88
2022-08-19T23:36:20.283Z,101395.09
2022-08-19T23:38:52.415Z,101401.28
2022-08-19T23:41:27.200Z,101403.06
2022-08-19T23:44:00.438Z,101403.31
2022-08-19T23:46:32.556Z,101404.19
2022-08-19T23:49:18.203Z,101413.25
2022-08-19T23:51:50.192Z,101406.00
2022-08-19T23:54:23.567Z,101409.16
2022-08-19T23:57:15.553Z,101405.41
2022-08-19T23:59:47.551Z,101408.59
